Pagrindinis puslapis
METAR-TAF:

METAR-TAF

Oro uostai :

Lakselv, Norvegija

platuma: 70-04N, ilguma: 024-59E, Aukštis: 0 m

Dabartinis oras

Ataskaita buvo paskelbta 26 minutes, ne 12:20 UTC
Vėjas 7 kt iš Pietų
Temperatūra 0°C
Drėgmė 93%
Slėgis 998 hPa
Matomumas: 6000 m
Su prošvaistėmis ne aukštis 2000 ft
sniegas

METAR: ENNA 161220Z 17007KT 6000 -SN BKN020 M00/M01 Q0998 RMK WIND 1800FT /////KT

Laikas: 13:46 (12:46 UTC)

Prognozė

Prognozė galioja nuo 16 metu 12 UTC su 17 metu 12 UTC
Vėjas 8 kt iš Pietų
Matomumas 10 km arba daugiau
Mažai debesys ne aukštis 1500 ft
Su prošvaistėmis ne aukštis 2500 ft
Laikinai
nuo 16 metu 12 UTC su 17 metu 09 UTC
Matomumas: 2500 m
ne aukštis 1200 ft
sniegas

TAF: ENNA 1612/1712 18008KT 9999 FEW015 BKN025 TEMPO 1612/1709 2500 -SN VV012

Orai ataskaitas ir orų prognozės (METAR, TAF).

turimą stotys yra geltonos ir raudonos taškus žemėlapyje.

Perkelti pele per norėdami pamatyti stoties vardą.

Tada spustelėkite, norėdami matyti oro stebėjimo ir prognozės.

Norėdami pakeisti žemėlapį: spustelėkite ant žalios mygtukų su juodo kryžiaus žemyn,; žalią mygtuką su brūkšneliu, jei norite nutolinti; arba žalių rodyklių gretimoms žemėlapius.


METAR-TAF: